Weather History for KFFA - February, 2013

Change the Weather History Date:

Saturday, February 2, 2013

  Actual Average (KMQI) Record (KMQI)
Temperature  
Mean Temperature 33 °F -  
Max Temperature 39 °F 48 °F 76 °F (1989)
Min Temperature 27 °F 36 °F 19 °F (1971)
Degree Days  
Heating Degree Days 32    
Moisture  
Dew Point 17 °F    
Average Humidity 51    
Maximum Humidity 70    
Minimum Humidity 34    
Precipitation  
Precipitation 0.00 in - - ()
Sea Level Pressure  
Sea Level Pressure 30.26 in    
Wind  
Wind Speed 4 mph (West)    
Max Wind Speed 8 mph    
Max Gust Speed -    
Visibility 10 miles    
Events Rain    
Averages and records for this station are not official NWS values.
T = Trace of Precipitation, MM = Missing Value Source: NWS Daily Summary

Daily Weather History Graph

Daily Weather History Graph

Search for Another Location

Airport or City:

Trip Planner

Search our weather history database for the weather conditions in past years. The results will help you decide how hot, cold, wet, or windy it might be!

Date:

Astronomy

Feb. 02, 2013 Rise Set
Actual Time 7:02 AM EST 5:30 PM EST
Civil Twilight 6:35 AM EST 5:57 PM EST
Nautical Twilight 6:04 AM EST 6:28 PM EST
Astronomical Twilight 5:34 AM EST 6:58 PM EST
Moon No Moon Rise 10:25 AM EST (2/2)
Length of Visible Light 11h 22m
Length of Day
10h 28m
Waning Gibbous, 60% of the Moon is Illuminated
Feb 2
Waning Gibbous
Feb 3
Last Quarter
Feb 10
New
Feb 17
First Quarter
Feb 25
Full

Hourly Weather History & Observations

Time (EST) Temp. Windchill Dew Point Humidity Pressure Visibility Wind Dir Wind Speed Gust Speed Precip Events Conditions
12:15 AM 29.3 °F 24.3 °F 5.9 °F 37% 30.35 in 10.0 mi NNW 4.6 mph - N/A   Clear
12:35 AM 29.3 °F 24.3 °F 7.3 °F 40% 30.36 in 10.0 mi NW 4.6 mph - N/A   Clear
12:55 AM 29.1 °F 25.4 °F 7.7 °F 41% 30.36 in 10.0 mi NW 3.5 mph - N/A   Clear
1:15 AM 28.9 °F 21.9 °F 7.7 °F 41% 30.36 in 10.0 mi NW 6.9 mph - N/A   Clear
1:35 AM 28.8 °F 21.7 °F 7.5 °F 41% 30.36 in 10.0 mi NW 6.9 mph - N/A   Clear
1:55 AM 28.6 °F 23.5 °F 8.1 °F 42% 30.37 in 10.0 mi NW 4.6 mph - N/A   Clear
2:15 AM 28.4 °F 21.2 °F 8.4 °F 43% 30.36 in 10.0 mi NNW 6.9 mph - N/A   Clear
2:35 AM 28.0 °F 22.8 °F 9.5 °F 46% 30.36 in 10.0 mi NNW 4.6 mph - N/A   Clear
2:55 AM 27.5 °F 23.6 °F 10.9 °F 50% 30.36 in 10.0 mi NW 3.5 mph - N/A   Clear
3:15 AM 27.3 °F 22.0 °F 12.4 °F 53% 30.35 in 10.0 mi NW 4.6 mph - N/A   Clear
3:35 AM 27.5 °F 23.6 °F 13.8 °F 56% 30.35 in 10.0 mi NW 3.5 mph - N/A   Clear
3:55 AM 27.7 °F 23.8 °F 14.5 °F 58% 30.36 in 10.0 mi NW 3.5 mph - N/A   Clear
4:15 AM 28.0 °F 22.8 °F 16.0 °F 61% 30.35 in 10.0 mi NW 4.6 mph - N/A   Clear
4:35 AM 27.9 °F 22.6 °F 15.6 °F 60% 30.35 in 10.0 mi NW 4.6 mph - N/A   Clear
4:55 AM 28.0 °F 22.8 °F 16.7 °F 62% 30.36 in 10.0 mi WNW 4.6 mph - N/A   Clear
5:15 AM 28.0 °F 24.2 °F 17.2 °F 64% 30.37 in 10.0 mi NW 3.5 mph - N/A   Clear
5:35 AM 28.4 °F 23.3 °F 16.9 °F 62% 30.36 in 10.0 mi NW 4.6 mph - N/A   Clear
5:55 AM 28.4 °F 23.3 °F 18.1 °F 65% 30.37 in 10.0 mi WNW 4.6 mph - N/A   Clear
6:15 AM 28.4 °F 24.6 °F 19.4 °F 69% 30.37 in 10.0 mi NW 3.5 mph - N/A   Clear
6:35 AM 28.4 °F 23.3 °F 18.9 °F 67% 30.38 in 10.0 mi NW 4.6 mph - N/A   Clear
6:55 AM 28.4 °F - 18.0 °F 65% 30.37 in 10.0 mi Calm Calm - N/A   Clear
7:15 AM 28.0 °F 24.2 °F 17.1 °F 63% 30.38 in 10.0 mi NW 3.5 mph - N/A   Clear
7:35 AM 28.4 °F 24.6 °F 17.6 °F 64% 30.38 in 10.0 mi WNW 3.5 mph - N/A   Clear
7:55 AM 29.3 °F 25.6 °F 17.8 °F 62% 30.39 in 10.0 mi NW 3.5 mph - N/A   Clear
8:15 AM 30.4 °F 25.6 °F 18.0 °F 60% 30.38 in 10.0 mi NW 4.6 mph - N/A   Clear
8:35 AM 31.5 °F 28.1 °F 17.6 °F 57% 30.38 in 10.0 mi NW 3.5 mph - N/A   Clear
8:55 AM 32.2 °F 28.9 °F 17.4 °F 55% 30.38 in 10.0 mi NNW 3.5 mph - N/A   Clear
9:15 AM 32.7 °F 29.6 °F 17.2 °F 53% 30.38 in 10.0 mi North 3.5 mph - N/A   Clear
9:35 AM 33.4 °F 28.1 °F 17.1 °F 51% 30.38 in 10.0 mi NE 5.8 mph - N/A   Clear
9:55 AM 33.8 °F - 17.1 °F 50% 30.37 in 10.0 mi Calm Calm - N/A   Clear
10:15 AM 34.0 °F 31.0 °F 17.1 °F 50% 30.37 in 10.0 mi North 3.5 mph - N/A   Clear
10:35 AM 34.5 °F - 17.8 °F 50% 30.37 in 10.0 mi Calm Calm - N/A   Clear
10:55 AM 34.9 °F - 17.8 °F 50% 30.36 in 10.0 mi Calm Calm - N/A   Clear
11:15 AM 35.4 °F - 18.1 °F 49% 30.35 in 10.0 mi Calm Calm - N/A   Clear
11:35 AM 35.8 °F 33.0 °F 18.5 °F 50% 30.35 in 10.0 mi West 3.5 mph - N/A   Clear
11:55 AM 36.1 °F 32.3 °F 18.9 °F 50% 30.33 in 10.0 mi WNW 4.6 mph - N/A   Clear
12:15 PM 36.1 °F 31.4 °F 18.3 °F 48% 30.33 in 10.0 mi West 5.8 mph - N/A   Clear
12:35 PM 36.5 °F - 17.2 °F 46% 30.30 in 10.0 mi Calm Calm - N/A   Clear
12:55 PM 36.3 °F 32.5 °F 15.8 °F 43% 30.29 in 10.0 mi SSW 4.6 mph - N/A   Clear
1:15 PM 36.0 °F 31.1 °F 18.3 °F 49% 30.28 in 10.0 mi WNW 5.8 mph - N/A   Clear
1:35 PM 35.6 °F 31.7 °F 19.0 °F 51% 30.26 in 10.0 mi NNW 4.6 mph - N/A   Clear
1:55 PM 37.0 °F 33.3 °F 18.7 °F 48% 30.26 in 10.0 mi SSW 4.6 mph - N/A   Clear
2:15 PM 37.6 °F 33.1 °F 17.1 °F 43% 30.24 in 10.0 mi SW 5.8 mph - N/A   Clear
2:35 PM 38.3 °F 33.9 °F 16.0 °F 40% 30.23 in 10.0 mi SSW 5.8 mph - N/A   Clear
2:55 PM 38.1 °F 33.7 °F 17.1 °F 43% 30.21 in 10.0 mi South 5.8 mph - N/A   Clear
3:15 PM 39.2 °F 35.9 °F 18.1 °F 43% 30.21 in 10.0 mi SSE 4.6 mph - N/A   Clear
3:35 PM 39.2 °F 37.0 °F 17.6 °F 42% 30.20 in 10.0 mi SSE 3.5 mph - N/A   Clear
3:55 PM 39.2 °F - 17.1 °F 41% 30.19 in 10.0 mi Calm Calm - N/A   Clear
4:15 PM 39.6 °F - 14.5 °F 36% 30.19 in 10.0 mi Calm Calm - N/A   Clear
4:35 PM 39.6 °F 34.0 °F 13.1 °F 34% 30.18 in 10.0 mi SSW 8.1 mph - N/A   Clear
4:55 PM 39.0 °F 35.7 °F 14.4 °F 37% 30.17 in 10.0 mi SSW 4.6 mph - N/A   Clear
5:15 PM 38.1 °F 34.6 °F 13.5 °F 36% 30.17 in 10.0 mi South 4.6 mph - N/A   Clear
5:35 PM 37.4 °F 32.8 °F 13.3 °F 37% 30.16 in 10.0 mi SSW 5.8 mph - N/A   Clear
5:55 PM 37.0 °F 33.3 °F 13.3 °F 38% 30.16 in 10.0 mi SSW 4.6 mph - N/A   Clear
6:15 PM 36.7 °F 34.1 °F 15.1 °F 41% 30.15 in 10.0 mi South 3.5 mph - N/A   Clear
6:35 PM 36.7 °F - 16.2 °F 43% 30.15 in 10.0 mi Calm Calm - N/A   Clear
6:55 PM 36.7 °F 34.1 °F 18.0 °F 47% 30.14 in 10.0 mi South 3.5 mph - N/A   Scattered Clouds
7:15 PM 36.7 °F - 18.1 °F 47% 30.14 in 10.0 mi Calm Calm - N/A   Mostly Cloudy
7:35 PM 36.7 °F 34.1 °F 20.1 °F 51% 30.14 in 10.0 mi South 3.5 mph - N/A   Mostly Cloudy
7:55 PM 37.0 °F - 23.2 °F 57% 30.14 in 10.0 mi Calm Calm - N/A   Overcast
8:15 PM 37.4 °F 33.8 °F 24.3 °F 59% 30.12 in 10.0 mi South 4.6 mph - N/A   Mostly Cloudy
8:35 PM 38.1 °F 34.6 °F 24.8 °F 59% 30.10 in 10.0 mi South 4.6 mph - N/A   Mostly Cloudy
8:55 PM 38.8 °F 36.5 °F 24.6 °F 57% 30.10 in 10.0 mi South 3.5 mph - N/A   Overcast
9:15 PM 39.4 °F 35.2 °F 24.4 °F 55% 30.09 in 10.0 mi SSW 5.8 mph - N/A   Overcast
9:35 PM 39.6 °F 36.3 °F 23.7 °F 53% 30.07 in 10.0 mi SW 4.6 mph - N/A   Overcast
9:55 PM 39.6 °F 37.4 °F 23.7 °F 53% 30.07 in 10.0 mi WSW 3.5 mph - N/A   Overcast
10:15 PM 39.2 °F - 23.9 °F 54% 30.05 in 10.0 mi Calm Calm - N/A   Overcast
10:35 PM 39.2 °F - 23.7 °F 54% 30.04 in 10.0 mi Calm Calm - N/A   Scattered Clouds
10:55 PM 38.7 °F - 23.7 °F 55% 30.04 in 10.0 mi Calm Calm - N/A   Mostly Cloudy
11:15 PM 38.8 °F 36.5 °F 24.6 °F 57% 30.04 in 10.0 mi WNW 3.5 mph - N/A   Overcast
11:35 PM 38.8 °F 34.6 °F 27.0 °F 62% 30.04 in 10.0 mi WNW 5.8 mph - N/A   Overcast
11:55 PM 39.0 °F 34.8 °F 29.8 °F 70% 30.02 in 10.0 mi WNW 5.8 mph - N/A Rain Light Rain